createdAt,value
2017-10-21T00:01:21.640Z,4.00
2017-10-21T00:03:47.965Z,3.80
2017-10-21T00:06:14.281Z,3.80
2017-10-21T00:08:40.583Z,3.97
2017-10-21T00:11:07.782Z,4.73
2017-10-21T00:13:34.092Z,3.57
2017-10-21T00:16:00.397Z,4.50
2017-10-21T00:18:26.700Z,4.03
2017-10-21T00:20:53.008Z,4.43
2017-10-21T00:23:19.377Z,4.13
2017-10-21T00:25:45.664Z,4.37
2017-10-21T00:28:11.978Z,4.70
2017-10-21T00:30:38.306Z,4.43
2017-10-21T00:33:04.611Z,4.33
2017-10-21T00:35:31.727Z,4.77
2017-10-21T00:37:58.179Z,4.20
2017-10-21T00:40:24.488Z,3.73
2017-10-21T00:42:51.506Z,4.67
2017-10-21T00:45:17.864Z,4.43
2017-10-21T00:47:44.166Z,5.10
2017-10-21T00:50:10.509Z,4.87
2017-10-21T00:52:36.796Z,3.70
2017-10-21T00:55:03.889Z,4.20
2017-10-21T00:57:30.168Z,3.60
2017-10-21T00:59:57.186Z,4.07
2017-10-21T01:02:23.516Z,3.87
2017-10-21T01:04:49.881Z,4.00
2017-10-21T01:07:16.976Z,3.80
2017-10-21T01:09:43.503Z,4.07
2017-10-21T01:12:09.828Z,3.50
2017-10-21T01:14:36.206Z,4.60
2017-10-21T01:17:02.579Z,4.03
2017-10-21T01:19:28.868Z,4.10
2017-10-21T01:21:55.188Z,4.67
2017-10-21T01:24:21.516Z,3.73
2017-10-21T01:26:47.796Z,4.63
2017-10-21T01:29:21.016Z,3.77
2017-10-21T01:31:47.328Z,3.47
2017-10-21T01:34:13.667Z,5.20
2017-10-21T01:36:40.015Z,4.80
2017-10-21T01:39:06.328Z,4.03
2017-10-21T01:41:32.612Z,4.00
2017-10-21T01:43:59.678Z,3.97
2017-10-21T01:46:26.076Z,5.43
2017-10-21T01:48:52.373Z,4.20
2017-10-21T01:51:18.681Z,5.23
2017-10-21T01:53:45.065Z,5.10
2017-10-21T01:56:11.372Z,4.60
2017-10-21T01:58:37.687Z,4.00
2017-10-21T02:01:04.140Z,4.60
2017-10-21T02:03:30.672Z,4.43
2017-10-21T02:05:56.988Z,5.10
2017-10-21T02:08:23.320Z,5.27
2017-10-21T02:10:49.604Z,6.80
2017-10-21T02:13:16.728Z,4.13
2017-10-21T02:15:42.996Z,4.23
2017-10-21T02:18:10.035Z,4.27
2017-10-21T02:20:37.049Z,4.40
2017-10-21T02:23:03.326Z,4.27
2017-10-21T02:25:29.652Z,4.47
2017-10-21T02:27:55.967Z,3.90
2017-10-21T02:30:23.021Z,8.40
2017-10-21T02:32:50.061Z,7.50
2017-10-21T02:35:17.128Z,6.13
2017-10-21T02:37:43.446Z,5.67
2017-10-21T02:40:10.552Z,4.90
2017-10-21T02:42:36.823Z,5.20
2017-10-21T02:45:04.034Z,4.93
2017-10-21T02:47:30.356Z,5.97
2017-10-21T02:49:56.656Z,4.63
2017-10-21T02:52:24.012Z,4.70
2017-10-21T02:54:50.391Z,5.20
2017-10-21T02:57:16.705Z,5.13
2017-10-21T02:59:42.980Z,4.43
2017-10-21T03:02:10.096Z,5.40
2017-10-21T03:04:37.166Z,4.43
2017-10-21T03:07:04.216Z,5.53
2017-10-21T03:09:31.649Z,5.17
2017-10-21T03:11:58.036Z,5.83
2017-10-21T03:14:24.361Z,6.00
2017-10-21T03:16:50.696Z,5.07
2017-10-21T03:19:17.000Z,6.80
2017-10-21T03:21:44.268Z,6.37
2017-10-21T03:24:10.624Z,6.07
2017-10-21T03:26:36.927Z,5.97
2017-10-21T03:29:03.228Z,7.60
2017-10-21T03:31:29.561Z,6.27
2017-10-21T03:33:56.645Z,6.33
2017-10-21T03:36:22.940Z,6.60
2017-10-21T03:38:50.058Z,6.40
2017-10-21T03:41:16.410Z,5.90
2017-10-21T03:43:42.774Z,6.20
2017-10-21T03:46:09.871Z,6.63
2017-10-21T03:48:36.174Z,6.20
2017-10-21T03:51:02.515Z,7.73
2017-10-21T03:53:28.812Z,8.20
2017-10-21T03:55:55.119Z,7.20
2017-10-21T03:58:22.187Z,7.00
2017-10-21T04:00:48.528Z,8.20
2017-10-21T04:03:15.575Z,8.83
2017-10-21T04:05:41.863Z,7.37
2017-10-21T04:08:08.174Z,8.47
2017-10-21T04:10:36.190Z,9.40
2017-10-21T04:13:03.417Z,8.53
2017-10-21T04:15:30.653Z,9.20
2017-10-21T04:17:56.940Z,9.50
2017-10-21T04:20:23.277Z,8.47
2017-10-21T04:22:49.573Z,8.60
2017-10-21T04:25:16.661Z,8.53
2017-10-21T04:27:42.983Z,7.80
2017-10-21T04:30:09.283Z,8.53
2017-10-21T04:32:35.628Z,8.23
2017-10-21T04:35:02.684Z,7.23
2017-10-21T04:37:28.990Z,7.40
2017-10-21T04:39:56.049Z,6.70
2017-10-21T04:42:22.376Z,5.87
2017-10-21T04:44:49.409Z,6.17
2017-10-21T04:47:16.536Z,6.00
2017-10-21T04:49:42.832Z,7.27
2017-10-21T04:52:09.145Z,7.50
2017-10-21T04:54:35.459Z,7.67
2017-10-21T04:57:02.700Z,8.50
2017-10-21T04:59:29.769Z,8.17
2017-10-21T05:01:56.062Z,8.53
2017-10-21T05:04:22.405Z,7.70
2017-10-21T05:06:49.433Z,8.70
2017-10-21T05:09:15.787Z,6.93
2017-10-21T05:11:43.080Z,5.87
2017-10-21T05:14:09.369Z,7.03
2017-10-21T05:16:36.433Z,6.10
2017-10-21T05:19:02.765Z,5.80
2017-10-21T05:21:29.098Z,6.53
2017-10-21T05:23:55.393Z,5.77
2017-10-21T05:26:21.876Z,7.00
2017-10-21T05:28:48.172Z,6.10
2017-10-21T05:31:15.239Z,7.07
2017-10-21T05:33:41.569Z,6.93
2017-10-21T05:36:08.026Z,6.10
2017-10-21T05:38:34.349Z,6.77
2017-10-21T05:41:00.703Z,5.00
2017-10-21T05:43:26.977Z,6.50
2017-10-21T05:45:53.293Z,5.33
2017-10-21T05:48:19.616Z,5.30
2017-10-21T05:50:45.904Z,5.83
2017-10-21T05:53:12.280Z,5.37
2017-10-21T05:55:38.643Z,5.50
2017-10-21T05:58:04.968Z,5.90
2017-10-21T06:00:31.288Z,6.03
2017-10-21T06:02:58.333Z,6.73
2017-10-21T06:05:25.385Z,5.97
2017-10-21T06:07:52.416Z,7.10
2017-10-21T06:10:19.504Z,6.23
2017-10-21T06:12:45.773Z,6.20
2017-10-21T06:15:12.104Z,7.00
2017-10-21T06:17:40.275Z,6.30
2017-10-21T06:20:06.766Z,6.47
2017-10-21T06:22:33.085Z,6.50
2017-10-21T06:25:00.292Z,7.87
2017-10-21T06:27:26.624Z,6.33
2017-10-21T06:29:52.975Z,6.50
2017-10-21T06:32:19.329Z,7.77
2017-10-21T06:34:45.845Z,5.63
2017-10-21T06:37:12.894Z,5.83
2017-10-21T06:39:39.978Z,5.90
2017-10-21T06:42:06.290Z,5.53
2017-10-21T06:44:32.645Z,6.67
2017-10-21T06:46:59.033Z,6.30
2017-10-21T06:49:26.069Z,5.63
2017-10-21T06:51:52.444Z,5.83
2017-10-21T06:54:18.746Z,5.80
2017-10-21T06:56:45.773Z,5.80
2017-10-21T06:59:12.116Z,5.83
2017-10-21T07:01:38.476Z,5.57
2017-10-21T07:04:04.859Z,6.37
2017-10-21T07:06:31.179Z,5.00
2017-10-21T07:08:57.500Z,6.70
2017-10-21T07:11:23.783Z,5.60
2017-10-21T07:13:50.849Z,6.20
2017-10-21T07:16:17.164Z,5.80
2017-10-21T07:18:44.202Z,5.67
2017-10-21T07:21:11.587Z,6.07
2017-10-21T07:23:37.901Z,5.80
2017-10-21T07:26:04.229Z,6.30
2017-10-21T07:28:30.566Z,5.90
2017-10-21T07:30:56.917Z,6.40
2017-10-21T07:33:23.260Z,6.50
2017-10-21T07:35:49.557Z,6.80
2017-10-21T07:38:16.024Z,5.93
2017-10-21T07:40:42.321Z,5.93
2017-10-21T07:43:08.656Z,5.57
2017-10-21T07:45:34.996Z,5.70
2017-10-21T07:48:01.294Z,6.90
2017-10-21T07:50:28.349Z,5.93
2017-10-21T07:52:54.624Z,5.50
2017-10-21T07:55:20.973Z,5.90
2017-10-21T07:57:47.289Z,6.43
2017-10-21T08:00:13.616Z,5.70
2017-10-21T08:02:39.937Z,6.37
2017-10-21T08:05:06.244Z,5.30
2017-10-21T08:07:32.537Z,5.33
2017-10-21T08:09:58.912Z,5.60
2017-10-21T08:12:25.243Z,6.70
2017-10-21T08:14:51.533Z,5.53
2017-10-21T08:17:19.586Z,5.30
2017-10-21T08:19:45.888Z,5.83
2017-10-21T08:22:13.688Z,5.60
2017-10-21T08:24:39.969Z,5.60
2017-10-21T08:27:06.356Z,6.13
2017-10-21T08:29:33.447Z,5.77
2017-10-21T08:31:59.871Z,6.03
2017-10-21T08:34:26.227Z,6.03
2017-10-21T08:36:52.576Z,6.10
2017-10-21T08:39:18.992Z,5.00
2017-10-21T08:41:45.293Z,5.83
2017-10-21T08:44:11.978Z,6.33
2017-10-21T08:46:38.257Z,5.40
2017-10-21T08:49:04.581Z,4.97
2017-10-21T08:51:31.716Z,5.13
2017-10-21T08:53:58.915Z,4.60
2017-10-21T08:56:26.003Z,5.30
2017-10-21T08:58:52.324Z,5.00
2017-10-21T09:01:18.686Z,5.10
2017-10-21T09:03:45.777Z,5.70
2017-10-21T09:06:12.083Z,6.40
2017-10-21T09:08:38.646Z,5.00
2017-10-21T09:11:04.956Z,6.23
2017-10-21T09:13:31.243Z,5.10
2017-10-21T09:15:58.338Z,6.00
2017-10-21T09:18:24.686Z,5.67
2017-10-21T09:20:51.046Z,4.97
2017-10-21T09:23:17.371Z,6.13
2017-10-21T09:25:43.713Z,6.00
2017-10-21T09:28:10.049Z,5.57
2017-10-21T09:30:37.337Z,6.20
2017-10-21T09:33:03.684Z,7.30
2017-10-21T09:35:30.140Z,7.37
2017-10-21T09:37:56.496Z,5.23
2017-10-21T09:40:23.888Z,6.40
2017-10-21T09:42:50.209Z,6.10
2017-10-21T09:45:16.520Z,6.27
2017-10-21T09:47:43.616Z,5.20
2017-10-21T09:50:10.132Z,6.70
2017-10-21T09:52:36.497Z,6.60
2017-10-21T09:55:03.549Z,6.50
2017-10-21T09:57:29.916Z,6.17
2017-10-21T09:59:56.963Z,6.10
2017-10-21T10:02:24.034Z,5.40
2017-10-21T10:04:50.374Z,7.60
2017-10-21T10:07:16.672Z,6.57
2017-10-21T10:09:42.982Z,5.80
2017-10-21T10:12:09.322Z,5.60
2017-10-21T10:14:36.348Z,6.30
2017-10-21T10:17:02.705Z,5.80
2017-10-21T10:19:29.831Z,5.67
2017-10-21T10:21:56.176Z,6.20
2017-10-21T10:24:23.232Z,5.00
2017-10-21T10:26:50.403Z,5.73
2017-10-21T10:29:16.709Z,5.90
2017-10-21T10:31:43.976Z,5.20
2017-10-21T10:34:10.429Z,6.43
2017-10-21T10:36:36.778Z,6.00
2017-10-21T10:39:03.044Z,6.07
2017-10-21T10:41:29.363Z,6.97
2017-10-21T10:43:57.169Z,5.97
2017-10-21T10:46:23.475Z,6.27
2017-10-21T10:48:50.592Z,5.80
2017-10-21T10:51:16.897Z,7.30
2017-10-21T10:53:43.230Z,6.13
2017-10-21T10:56:09.659Z,6.30
2017-10-21T10:58:36.215Z,5.63
2017-10-21T11:01:02.532Z,6.57
2017-10-21T11:03:29.264Z,5.73
2017-10-21T11:05:55.642Z,5.80
2017-10-21T11:08:22.014Z,6.27
2017-10-21T11:10:48.384Z,6.70
2017-10-21T11:13:14.721Z,6.90
2017-10-21T11:15:41.035Z,5.70
2017-10-21T11:18:07.374Z,5.70
2017-10-21T11:20:33.736Z,6.03
2017-10-21T11:23:00.826Z,6.07
2017-10-21T11:25:27.202Z,6.17
2017-10-21T11:27:53.492Z,6.47
2017-10-21T11:30:19.797Z,5.40
2017-10-21T11:32:46.164Z,6.10
2017-10-21T11:35:12.512Z,6.50
2017-10-21T11:37:38.839Z,5.70
2017-10-21T11:40:05.159Z,6.13
2017-10-21T11:42:31.510Z,6.40
2017-10-21T11:44:57.809Z,6.30
2017-10-21T11:47:24.454Z,6.23
2017-10-21T11:49:50.796Z,6.37
2017-10-21T11:52:17.129Z,5.60
2017-10-21T11:57:16.585Z,5.67
2017-10-21T11:59:43.844Z,5.83
2017-10-21T12:02:10.873Z,6.10
2017-10-21T12:04:37.905Z,5.80
2017-10-21T12:07:04.289Z,6.27
2017-10-21T12:09:30.797Z,6.10
2017-10-21T12:11:57.859Z,6.50
2017-10-21T12:14:24.176Z,7.03
2017-10-21T12:16:51.272Z,6.10
2017-10-21T12:19:17.586Z,6.07
2017-10-21T12:21:43.888Z,5.60
2017-10-21T12:24:10.921Z,6.30
2017-10-21T12:26:37.989Z,6.00
2017-10-21T12:29:04.273Z,5.80
2017-10-21T12:31:30.589Z,5.47
2017-10-21T12:33:56.876Z,6.13
2017-10-21T12:36:23.963Z,6.97
2017-10-21T12:38:50.276Z,5.83
2017-10-21T12:41:16.592Z,5.90
2017-10-21T12:43:42.919Z,6.17
2017-10-21T12:46:09.223Z,5.30
2017-10-21T12:48:36.359Z,5.30
2017-10-21T12:51:02.673Z,5.97
2017-10-21T12:53:29.019Z,6.27
2017-10-21T12:55:55.320Z,6.23
2017-10-21T12:58:21.620Z,5.87
2017-10-21T13:00:47.944Z,5.80
2017-10-21T13:03:15.200Z,5.23
2017-10-21T13:05:41.576Z,5.60
2017-10-21T13:08:07.945Z,5.00
2017-10-21T13:10:35.015Z,6.73
2017-10-21T13:13:01.356Z,5.50
2017-10-21T13:15:27.673Z,6.07
2017-10-21T13:17:54.012Z,6.10
2017-10-21T13:20:20.332Z,5.83
2017-10-21T13:22:46.640Z,5.17
2017-10-21T13:25:13.699Z,6.30
2017-10-21T13:27:40.792Z,5.57
2017-10-21T13:30:07.091Z,5.70
2017-10-21T13:32:33.412Z,6.10
2017-10-21T13:35:00.280Z,7.10
2017-10-21T13:37:26.753Z,7.10
2017-10-21T13:39:53.079Z,7.23
2017-10-21T13:42:19.409Z,7.80
2017-10-21T13:44:45.764Z,8.50
2017-10-21T13:47:12.875Z,7.17
2017-10-21T13:49:39.172Z,5.63
2017-10-21T13:52:05.525Z,5.10
2017-10-21T13:54:31.846Z,5.20
2017-10-21T13:56:58.145Z,4.63
2017-10-21T13:59:24.509Z,5.70
2017-10-21T14:01:50.864Z,5.10
2017-10-21T14:04:17.138Z,5.07
2017-10-21T14:06:43.431Z,4.40
2017-10-21T14:09:09.809Z,4.20
2017-10-21T14:11:36.115Z,4.07
2017-10-21T14:14:03.148Z,4.97
2017-10-21T14:16:30.940Z,4.70
2017-10-21T14:18:57.277Z,4.23
2017-10-21T14:21:23.593Z,4.47
2017-10-21T14:23:50.651Z,4.47
2017-10-21T14:26:16.981Z,4.37
2017-10-21T14:28:43.332Z,4.60
2017-10-21T14:31:09.665Z,4.40
2017-10-21T14:33:36.014Z,5.17
2017-10-21T14:36:02.316Z,5.30
2017-10-21T14:38:28.674Z,5.00
2017-10-21T14:40:54.965Z,5.33
2017-10-21T14:43:21.314Z,5.90
2017-10-21T14:45:47.624Z,5.10
2017-10-21T14:48:14.695Z,5.80
2017-10-21T14:50:41.001Z,6.17
2017-10-21T14:53:08.081Z,6.77
2017-10-21T14:55:34.453Z,6.10
2017-10-21T14:58:02.256Z,6.70
2017-10-21T15:00:28.638Z,6.03
2017-10-21T15:02:55.712Z,5.90
2017-10-21T15:05:22.790Z,4.97
2017-10-21T15:07:49.120Z,4.83
2017-10-21T15:10:15.843Z,4.30
2017-10-21T15:12:42.885Z,3.60
2017-10-21T15:15:10.056Z,3.80
2017-10-21T15:17:36.434Z,4.07
2017-10-21T15:20:03.500Z,3.90
2017-10-21T15:22:30.557Z,3.13
2017-10-21T15:24:57.629Z,3.90
2017-10-21T15:27:23.944Z,4.13
2017-10-21T15:29:51.021Z,3.10
2017-10-21T15:32:17.326Z,2.37
2017-10-21T15:34:43.648Z,2.87
2017-10-21T15:37:10.703Z,1.90
2017-10-21T15:39:37.056Z,1.80
2017-10-21T15:42:03.368Z,1.90
2017-10-21T15:44:29.677Z,1.90
2017-10-21T15:46:56.752Z,1.93
2017-10-21T15:49:23.080Z,2.47
2017-10-21T15:51:49.358Z,2.30
2017-10-21T15:54:16.405Z,2.97
2017-10-21T15:56:42.728Z,2.80
2017-10-21T15:59:09.058Z,2.40
2017-10-21T16:01:35.362Z,2.83
2017-10-21T16:04:01.688Z,2.80
2017-10-21T16:06:28.232Z,2.70
2017-10-21T16:08:54.616Z,2.60
2017-10-21T16:11:21.761Z,2.80
2017-10-21T16:13:48.858Z,2.60
2017-10-21T16:16:15.176Z,3.00
2017-10-21T16:18:41.490Z,2.77
2017-10-21T16:21:08.538Z,2.93
2017-10-21T16:23:34.868Z,3.10
2017-10-21T16:26:01.941Z,2.87
2017-10-21T16:28:28.276Z,3.03
2017-10-21T16:30:54.564Z,3.43
2017-10-21T16:33:21.613Z,3.60
2017-10-21T16:35:48.756Z,3.37
2017-10-21T16:38:15.851Z,3.10
2017-10-21T16:40:42.202Z,3.80
2017-10-21T16:43:08.532Z,3.30
2017-10-21T16:45:34.856Z,3.67
2017-10-21T16:48:01.165Z,4.03
2017-10-21T16:50:27.495Z,3.97
2017-10-21T16:52:53.769Z,3.17
2017-10-21T16:55:20.177Z,4.60
2017-10-21T16:57:46.524Z,3.83
2017-10-21T17:00:12.841Z,4.47
2017-10-21T17:02:39.156Z,3.70
2017-10-21T17:05:05.466Z,4.10
2017-10-21T17:07:31.845Z,4.20
2017-10-21T17:09:58.215Z,3.80
2017-10-21T17:12:25.265Z,3.77
2017-10-21T17:14:52.352Z,4.30
2017-10-21T17:17:18.876Z,3.37
2017-10-21T17:19:45.198Z,4.23
2017-10-21T17:22:11.536Z,3.17
2017-10-21T17:24:37.830Z,3.40
2017-10-21T17:27:05.080Z,3.57
2017-10-21T17:29:32.205Z,4.10
2017-10-21T17:31:58.538Z,3.23
2017-10-21T17:34:26.445Z,3.30
2017-10-21T17:36:52.788Z,3.67
2017-10-21T17:39:19.158Z,3.20
2017-10-21T17:41:45.460Z,3.37
2017-10-21T17:44:11.816Z,3.40
2017-10-21T17:46:39.654Z,3.30
2017-10-21T17:49:05.965Z,3.97
2017-10-21T17:51:32.375Z,3.10
2017-10-21T17:53:59.436Z,3.80
2017-10-21T17:56:27.422Z,3.70
2017-10-21T17:58:53.786Z,4.73
2017-10-21T18:01:20.261Z,3.80
2017-10-21T18:03:47.451Z,3.83
2017-10-21T18:06:13.797Z,3.40
2017-10-21T18:08:40.178Z,3.90
2017-10-21T18:11:07.257Z,3.30
2017-10-21T18:13:33.615Z,4.13
2017-10-21T18:15:59.950Z,4.70
2017-10-21T18:18:26.269Z,4.00
2017-10-21T18:20:52.608Z,4.20
2017-10-21T18:23:20.721Z,3.30
2017-10-21T18:25:47.817Z,3.50
2017-10-21T18:28:14.152Z,3.57
2017-10-21T18:30:40.529Z,3.80
2017-10-21T18:33:07.602Z,3.30
2017-10-21T18:35:34.232Z,3.50
2017-10-21T18:38:00.557Z,3.53
2017-10-21T18:40:27.720Z,3.80
2017-10-21T18:42:54.089Z,3.77
2017-10-21T18:45:29.312Z,3.53
2017-10-21T18:47:55.915Z,3.33
2017-10-21T18:50:22.249Z,3.40
2017-10-21T18:52:48.738Z,2.60
2017-10-21T18:55:15.777Z,3.40
2017-10-21T18:57:42.313Z,3.70
2017-10-21T19:00:08.633Z,3.50
2017-10-21T19:02:36.052Z,2.97
2017-10-21T19:05:02.385Z,3.03
2017-10-21T19:07:28.690Z,3.10
2017-10-21T19:09:55.781Z,3.23
2017-10-21T19:12:22.079Z,2.73
2017-10-21T19:14:48.412Z,3.13
2017-10-21T19:17:14.748Z,3.47
2017-10-21T19:19:41.135Z,3.73
2017-10-21T19:22:07.441Z,3.07
2017-10-21T19:24:33.794Z,2.80
2017-10-21T19:27:00.130Z,3.30
2017-10-21T19:29:26.445Z,3.17
2017-10-21T19:31:52.816Z,3.03
2017-10-21T19:34:19.924Z,3.23
2017-10-21T19:36:46.273Z,2.80
2017-10-21T19:39:13.345Z,2.70
2017-10-21T19:41:40.411Z,3.10
2017-10-21T19:44:06.796Z,2.73
2017-10-21T19:46:34.768Z,2.97
2017-10-21T19:49:01.088Z,2.77
2017-10-21T19:51:27.403Z,3.40
2017-10-21T19:53:53.913Z,2.70
2017-10-21T19:56:20.413Z,2.97
2017-10-21T19:58:47.497Z,3.07
2017-10-21T20:01:13.778Z,3.40
2017-10-21T20:03:40.935Z,3.73
2017-10-21T20:06:08.135Z,3.03
2017-10-21T20:08:34.505Z,2.97
2017-10-21T20:11:00.926Z,2.80
2017-10-21T20:13:27.268Z,2.70
2017-10-21T20:15:53.626Z,2.80
2017-10-21T20:18:20.705Z,3.30
2017-10-21T20:20:47.094Z,2.80
2017-10-21T20:23:14.282Z,3.33
2017-10-21T20:25:40.700Z,3.10
2017-10-21T20:28:07.085Z,2.80
2017-10-21T20:30:33.451Z,2.60
2017-10-21T20:33:00.672Z,3.00
2017-10-21T20:35:27.040Z,3.20
2017-10-21T20:37:53.357Z,3.00
2017-10-21T20:40:19.681Z,3.80
2017-10-21T20:42:46.812Z,2.70
2017-10-21T20:45:13.149Z,3.07
2017-10-21T20:47:39.469Z,2.50
2017-10-21T20:50:06.308Z,2.60
2017-10-21T20:52:32.732Z,2.47
2017-10-21T20:54:59.089Z,3.70
2017-10-21T20:57:25.469Z,2.60
2017-10-21T20:59:51.814Z,2.80
2017-10-21T21:02:18.145Z,3.30
2017-10-21T21:04:44.483Z,2.87
2017-10-21T21:07:10.792Z,3.10
2017-10-21T21:09:37.497Z,2.40
2017-10-21T21:12:03.990Z,2.67
2017-10-21T21:14:30.445Z,2.50
2017-10-21T21:16:57.527Z,3.90
2017-10-21T21:19:23.879Z,3.40
2017-10-21T21:21:50.252Z,3.10
2017-10-21T21:24:16.583Z,2.90
2017-10-21T21:26:42.941Z,3.17
2017-10-21T21:29:09.281Z,2.93
2017-10-21T21:31:35.586Z,2.73
2017-10-21T21:34:01.884Z,3.30
2017-10-21T21:36:28.168Z,2.30
2017-10-21T21:38:54.516Z,3.20
2017-10-21T21:41:20.808Z,3.10
2017-10-21T21:43:47.861Z,2.80
2017-10-21T21:46:14.941Z,2.63
2017-10-21T21:48:41.236Z,3.03
2017-10-21T21:51:08.457Z,2.73
2017-10-21T21:53:34.752Z,3.30
2017-10-21T21:56:01.062Z,3.10
2017-10-21T21:58:27.374Z,2.83
2017-10-21T22:00:54.517Z,2.60
2017-10-21T22:03:20.793Z,3.23
2017-10-21T22:05:47.126Z,2.47
2017-10-21T22:08:13.433Z,2.93
2017-10-21T22:10:39.729Z,2.60
2017-10-21T22:13:07.501Z,2.30
2017-10-21T22:15:34.577Z,2.63
2017-10-21T22:18:00.930Z,2.33
2017-10-21T22:20:27.220Z,3.90
2017-10-21T22:22:54.428Z,2.97
2017-10-21T22:25:20.730Z,2.87
2017-10-21T22:27:47.169Z,2.83
2017-10-21T22:30:13.506Z,3.00
2017-10-21T22:32:39.788Z,2.33
2017-10-21T22:35:06.232Z,3.00
2017-10-21T22:37:33.288Z,2.73
2017-10-21T22:39:59.609Z,2.87
2017-10-21T22:42:26.665Z,2.87
2017-10-21T22:44:52.952Z,2.40
2017-10-21T22:47:19.264Z,2.70
2017-10-21T22:49:45.578Z,2.47
2017-10-21T22:52:11.920Z,2.50
2017-10-21T22:54:38.438Z,2.97
2017-10-21T22:57:04.900Z,3.70
2017-10-21T22:59:31.294Z,3.20
2017-10-21T23:01:57.651Z,3.70
2017-10-21T23:04:24.088Z,3.63
2017-10-21T23:06:56.803Z,4.37
2017-10-21T23:09:29.511Z,3.33
2017-10-21T23:11:55.893Z,4.17
2017-10-21T23:14:22.302Z,4.90
2017-10-21T23:16:48.632Z,4.17
2017-10-21T23:19:15.071Z,4.67
2017-10-21T23:21:41.425Z,4.60
2017-10-21T23:24:07.709Z,5.33
2017-10-21T23:26:34.041Z,5.40
2017-10-21T23:29:00.386Z,5.63
2017-10-21T23:31:26.711Z,5.63
2017-10-21T23:33:52.988Z,4.97
2017-10-21T23:36:20.058Z,4.30
2017-10-21T23:38:47.093Z,4.47
2017-10-21T23:41:13.404Z,3.93
2017-10-21T23:43:39.712Z,3.00
2017-10-21T23:46:06.018Z,3.80
2017-10-21T23:48:32.520Z,3.60
2017-10-21T23:50:59.537Z,4.00
2017-10-21T23:53:25.877Z,3.90
2017-10-21T23:55:52.312Z,4.10
2017-10-21T23:58:18.648Z,3.63
